Grandview, TX (76050)

1:23 AM CDT on September 18, 2014 (GMT -0500)
SE Johnson County | Change Station
CLOSE
Current Station
Personal Weather Station
Location: Grandview, TX
Elevation: 614 ft
Nearby Weather Stations

Elev 614 ft 32.30 °N, 97.13 °W | Updated 3 minutes ago

Mostly Cloudy
Mostly Cloudy
73.2 °F
Feels Like 73.2 °F
N
2.0
Wind Variable Wind from WNW
Gusts 3.0 mph

Today
High -- | Low -- °F
--% Chance of Precip.
Yesterday
High -- | Low -- °F
Precip. -- in
7:14 AM 7:30 PM
Waning Crescent, 29% visible
Pressure 29.91 in
Visibility 10.0 miles
Clouds Mostly Cloudy 700 ft
Dew Point 71 °F
Humidity 94%
Rainfall 0.00 in
Snow Depth Not available.
UV 0 out of 12
Pollen 10.60 out of 12
Ozone Good
PM2.5 Moderate
Flu Activity Not available.
METAR KINJ 180615Z AUTO 18006KT 10SM BKN007 24/22 A2991 RMK AO2 LTG DSNT S T02350218

More Conditions Fewer Conditions

Pressure 29.91 in
Visibility 10.0 miles
Clouds Mostly Cloudy 700 ft
Dew Point 71 °F
Humidity 94%
Rainfall 0.00 in
Snow Depth Not available.
UV 0 out of 12
Pollen 10.60 out of 12
Ozone Good
PM2.5 Moderate
Flu Activity Not available.
METAR KINJ 180615Z AUTO 18006KT 10SM BKN007 24/22 A2991 RMK AO2 LTG DSNT S T02350218

More Conditions Fewer Conditions

Nowcast | as of 1:05 am CDT on September 18, 2014

An area of showers and thunderstorms will move south from southeast Oklahoma and affect portions of Lamar and fanning County through 3 am. Cloud to ground lightning...wind gusts to 40 mph and brief heavy rainfall will accompany this activity as it moves south at 30 mph. Another area of rain and thunderstorms will continue south of a Lampasas to Palestine line through 3 am. This activity will remain nearly stationary and produce some heavy rainfall and localized flooding...especially between Cameron and Hearne.

×

10-Day Weather Forecast

Almanac

Astronomy

Sep. 18, 2014 Rise Set
Actual Time 7:14 AM CDT 7:30 PM CDT
Civil Twilight 6:49 AM CDT 7:55 PM CDT
Nautical Twilight 6:21 AM CDT 8:23 PM CDT
Astronomical Twilight 5:52 AM CDT 8:52 PM CDT
Moon 2:20 AM CDT 4:10 PM CDT
Length of Visible Light 13h 05m
Length of Day
12h 16m
Tomorrow will be 1m 57s shorter.
Waning Crescent, 29% of the Moon is Illuminated
Today
Waning Crescent
Sep 24
New
Oct 1
First Quarter
Oct 8
Full
Oct 15
Last Quarter

Today's Extremes

State Highs State Lows

Community

WunderPhotos

Upload Photos

1,754,299 photos uploaded!

Nearby

Air Quality

  Air Quality AQ Index Pollutant
Yesterday Moderate
OZONE
Yesterday Moderate
PM2.5
Current Moderate
PM2.5
Current Good
OZONE
Wednesday Moderate
OZONE
Wednesday Good
PM10
Thursday Good
OZONE
Thursday Good
PM10
Friday Good
OZONE
Friday Good
PM10
Saturday Good
OZONE
Saturday Good
PM10

Snow Depth

Station Depth Elevation
No new snow has been reported.

Earthquake Activity

City Distance Mag. Time & Date
No recent earthquake activity has been reported nearby.
Minimum magnitude displayed is 2.5.

Coastal Water Temperatures

Place Temperature
No Stations Reporting

Nearby Weather Stations